Broadview, Montana
Current Conditions -  °F | °C
As of 5:53 AM on Friday 28 Nov 2014 (Local Time) from KBIL Reporting Station
Broken Clouds Broken Clouds  
Wind Chill: 41°   Ceiling: 20000
Heat Index: 45°   Visibility: 10mi
Dew Point: 30°   Wind: 8mph
Humidity: 56%   Direction: 230°SW
Pressure: 29.65"   Gusts: NA
Location:  46.1°N, 108.88°W
Report Text: KBIL 281253Z 23007KT 10SM BKN200 07/M01 A2965 RMK AO2 SLP043 T00721011 $
Loading
Personal Weather Stations






























Interactive Weather Map New forecast layout! Learn more

10-Day Weather Forecast

Advertisements
Track Severe Weather on mobile